Terminal Aerodrome Forecast
Issued by NWS

Home | Current Version | Previous Version | Graphics & Text | Print | Product List | Glossary On
Versions: 1 2 3 4 5 6 7 8 9 10 11 12 13 14 15 16 17 18 19
000
FTUS43 KGRB 061959 AAA
TAFATW
TAF AMD
KATW 061959Z 0620/0718 22008KT P6SM OVC012
     FM070200 20006KT P6SM BKN011 OVC100
     FM070600 20008KT P6SM BKN100
     FM071200 22011G15KT P6SM BKN060 OVC090=

USA.gov is the U.S. government's official web portal to all federal, state and local government web resources and services.